sensor_id;sensor_type;location;lat;lon;timestamp;P1;durP1;ratioP1;P2;durP2;ratioP2
64799;SDS011;51233;51.982;4.594;2023-04-03T00:02:28;2.23;;;1.17;;
64799;SDS011;51233;51.982;4.594;2023-04-03T00:05:28;3.42;;;1.02;;
64799;SDS011;51233;51.982;4.594;2023-04-03T00:08:28;1.37;;;0.87;;
64799;SDS011;51233;51.982;4.594;2023-04-03T00:11:30;1.10;;;1.00;;
64799;SDS011;51233;51.982;4.594;2023-04-03T00:14:30;1.00;;;1.00;;
64799;SDS011;51233;51.982;4.594;2023-04-03T00:17:31;1.00;;;0.90;;
64799;SDS011;51233;51.982;4.594;2023-04-03T00:20:31;1.63;;;1.10;;
64799;SDS011;51233;51.982;4.594;2023-04-03T00:23:33;1.20;;;1.10;;
64799;SDS011;51233;51.982;4.594;2023-04-03T00:26:33;2.17;;;0.88;;
64799;SDS011;51233;51.982;4.594;2023-04-03T00:29:33;2.03;;;1.13;;
64799;SDS011;51233;51.982;4.594;2023-04-03T00:32:33;4.25;;;1.10;;
64799;SDS011;51233;51.982;4.594;2023-04-03T00:35:34;1.43;;;0.97;;
64799;SDS011;51233;51.982;4.594;2023-04-03T00:38:35;1.27;;;1.17;;
64799;SDS011;51233;51.982;4.594;2023-04-03T00:41:35;0.80;;;0.80;;
64799;SDS011;51233;51.982;4.594;2023-04-03T00:47:35;1.33;;;0.80;;
64799;SDS011;51233;51.982;4.594;2023-04-03T00:50:37;2.50;;;1.02;;
64799;SDS011;51233;51.982;4.594;2023-04-03T00:53:39;1.45;;;1.08;;
64799;SDS011;51233;51.982;4.594;2023-04-03T00:56:40;2.70;;;1.10;;
64799;SDS011;51233;51.982;4.594;2023-04-03T00:59:45;0.93;;;0.93;;
64799;SDS011;51233;51.982;4.594;2023-04-03T01:02:46;1.05;;;0.95;;
64799;SDS011;51233;51.982;4.594;2023-04-03T01:05:47;1.05;;;0.90;;
64799;SDS011;51233;51.982;4.594;2023-04-03T01:08:48;2.17;;;1.30;;
64799;SDS011;51233;51.982;4.594;2023-04-03T01:11:48;3.10;;;1.08;;
64799;SDS011;51233;51.982;4.594;2023-04-03T01:14:53;1.55;;;1.10;;
64799;SDS011;51233;51.982;4.594;2023-04-03T01:17:54;1.75;;;1.10;;
64799;SDS011;51233;51.982;4.594;2023-04-03T01:24:21;2.20;;;1.20;;
64799;SDS011;51233;51.982;4.594;2023-04-03T01:27:22;3.42;;;1.23;;
64799;SDS011;51233;51.982;4.594;2023-04-03T01:30:24;2.15;;;1.13;;
64799;SDS011;51233;51.982;4.594;2023-04-03T01:33:26;3.03;;;1.10;;
64799;SDS011;51233;51.982;4.594;2023-04-03T01:36:28;1.48;;;1.10;;
64799;SDS011;51233;51.982;4.594;2023-04-03T01:39:28;1.85;;;1.48;;
64799;SDS011;51233;51.982;4.594;2023-04-03T01:42:28;1.98;;;1.10;;
64799;SDS011;51233;51.982;4.594;2023-04-03T01:45:29;3.07;;;1.60;;
64799;SDS011;51233;51.982;4.594;2023-04-03T01:48:29;1.27;;;1.08;;
64799;SDS011;51233;51.982;4.594;2023-04-03T01:51:30;2.05;;;1.23;;
64799;SDS011;51233;51.982;4.594;2023-04-03T01:54:30;2.23;;;1.30;;
64799;SDS011;51233;51.982;4.594;2023-04-03T01:57:33;1.33;;;1.23;;
64799;SDS011;51233;51.982;4.594;2023-04-03T02:00:33;2.10;;;1.08;;
64799;SDS011;51233;51.982;4.594;2023-04-03T02:03:33;3.60;;;1.40;;
64799;SDS011;51233;51.982;4.594;2023-04-03T02:06:33;1.67;;;1.00;;
64799;SDS011;51233;51.982;4.594;2023-04-03T02:09:34;1.15;;;0.70;;
64799;SDS011;51233;51.982;4.594;2023-04-03T02:12:35;1.33;;;1.00;;
64799;SDS011;51233;51.982;4.594;2023-04-03T02:15:37;1.85;;;1.00;;
64799;SDS011;51233;51.982;4.594;2023-04-03T02:18:37;1.70;;;1.45;;
64799;SDS011;51233;51.982;4.594;2023-04-03T02:21:38;1.55;;;1.08;;
64799;SDS011;51233;51.982;4.594;2023-04-03T02:24:38;3.10;;;1.45;;
64799;SDS011;51233;51.982;4.594;2023-04-03T02:27:40;1.38;;;1.20;;
64799;SDS011;51233;51.982;4.594;2023-04-03T02:30:40;1.05;;;1.00;;
64799;SDS011;51233;51.982;4.594;2023-04-03T02:33:46;1.17;;;1.08;;
64799;SDS011;51233;51.982;4.594;2023-04-03T02:36:49;2.30;;;1.23;;
64799;SDS011;51233;51.982;4.594;2023-04-03T02:39:49;2.90;;;1.20;;
64799;SDS011;51233;51.982;4.594;2023-04-03T02:42:50;1.50;;;1.10;;
64799;SDS011;51233;51.982;4.594;2023-04-03T02:45:50;1.80;;;1.40;;
64799;SDS011;51233;51.982;4.594;2023-04-03T02:48:50;1.52;;;1.20;;
64799;SDS011;51233;51.982;4.594;2023-04-03T02:51:50;5.37;;;1.40;;
64799;SDS011;51233;51.982;4.594;2023-04-03T02:54:51;1.90;;;1.33;;
64799;SDS011;51233;51.982;4.594;2023-04-03T02:57:51;1.48;;;1.20;;
64799;SDS011;51233;51.982;4.594;2023-04-03T03:00:51;2.20;;;1.10;;
64799;SDS011;51233;51.982;4.594;2023-04-03T03:03:51;3.17;;;1.15;;
64799;SDS011;51233;51.982;4.594;2023-04-03T03:06:51;2.58;;;1.30;;
64799;SDS011;51233;51.982;4.594;2023-04-03T03:09:52;1.80;;;1.20;;
64799;SDS011;51233;51.982;4.594;2023-04-03T03:12:52;1.80;;;1.10;;
64799;SDS011;51233;51.982;4.594;2023-04-03T03:15:53;2.63;;;1.33;;
64799;SDS011;51233;51.982;4.594;2023-04-03T03:18:53;1.95;;;1.33;;
64799;SDS011;51233;51.982;4.594;2023-04-03T03:21:53;2.27;;;1.57;;
64799;SDS011;51233;51.982;4.594;2023-04-03T03:24:53;1.33;;;1.20;;
64799;SDS011;51233;51.982;4.594;2023-04-03T03:27:54;1.10;;;1.10;;
64799;SDS011;51233;51.982;4.594;2023-04-03T03:30:54;3.28;;;1.60;;
64799;SDS011;51233;51.982;4.594;2023-04-03T03:33:55;1.67;;;1.50;;
64799;SDS011;51233;51.982;4.594;2023-04-03T03:36:55;1.50;;;1.40;;
64799;SDS011;51233;51.982;4.594;2023-04-03T03:39:58;1.88;;;1.30;;
64799;SDS011;51233;51.982;4.594;2023-04-03T03:42:58;1.92;;;1.13;;
64799;SDS011;51233;51.982;4.594;2023-04-03T03:45:58;3.38;;;1.25;;
64799;SDS011;51233;51.982;4.594;2023-04-03T03:48:59;1.57;;;1.33;;
64799;SDS011;51233;51.982;4.594;2023-04-03T03:52:02;2.15;;;1.20;;
64799;SDS011;51233;51.982;4.594;2023-04-03T03:55:02;1.17;;;1.08;;
64799;SDS011;51233;51.982;4.594;2023-04-03T03:58:03;1.70;;;1.35;;
64799;SDS011;51233;51.982;4.594;2023-04-03T04:01:04;1.52;;;1.30;;
64799;SDS011;51233;51.982;4.594;2023-04-03T04:07:05;1.73;;;1.42;;
64799;SDS011;51233;51.982;4.594;2023-04-03T04:10:06;1.35;;;1.10;;
64799;SDS011;51233;51.982;4.594;2023-04-03T04:13:06;1.05;;;1.00;;
64799;SDS011;51233;51.982;4.594;2023-04-03T04:16:06;1.87;;;1.23;;
64799;SDS011;51233;51.982;4.594;2023-04-03T04:19:07;1.10;;;1.00;;
64799;SDS011;51233;51.982;4.594;2023-04-03T04:22:07;1.20;;;1.10;;
64799;SDS011;51233;51.982;4.594;2023-04-03T04:25:07;1.13;;;1.00;;
64799;SDS011;51233;51.982;4.594;2023-04-03T04:28:07;1.60;;;1.27;;
64799;SDS011;51233;51.982;4.594;2023-04-03T04:31:08;3.25;;;1.40;;
64799;SDS011;51233;51.982;4.594;2023-04-03T04:34:08;1.57;;;1.20;;
64799;SDS011;51233;51.982;4.594;2023-04-03T04:37:08;1.92;;;1.30;;
64799;SDS011;51233;51.982;4.594;2023-04-03T04:40:08;2.58;;;1.35;;
64799;SDS011;51233;51.982;4.594;2023-04-03T04:43:09;2.57;;;1.33;;
64799;SDS011;51233;51.982;4.594;2023-04-03T04:46:10;4.53;;;1.50;;
64799;SDS011;51233;51.982;4.594;2023-04-03T04:49:13;2.42;;;1.50;;
64799;SDS011;51233;51.982;4.594;2023-04-03T04:52:14;3.80;;;1.67;;
64799;SDS011;51233;51.982;4.594;2023-04-03T04:55:14;1.90;;;1.70;;
64799;SDS011;51233;51.982;4.594;2023-04-03T04:58:14;1.80;;;1.33;;
64799;SDS011;51233;51.982;4.594;2023-04-03T05:01:15;1.92;;;1.50;;
64799;SDS011;51233;51.982;4.594;2023-04-03T05:04:15;1.63;;;1.23;;
64799;SDS011;51233;51.982;4.594;2023-04-03T05:07:16;3.17;;;1.50;;
64799;SDS011;51233;51.982;4.594;2023-04-03T05:10:19;1.52;;;1.40;;
64799;SDS011;51233;51.982;4.594;2023-04-03T05:13:19;1.30;;;1.20;;
64799;SDS011;51233;51.982;4.594;2023-04-03T05:16:19;2.75;;;1.23;;
64799;SDS011;51233;51.982;4.594;2023-04-03T05:19:22;1.88;;;1.27;;
64799;SDS011;51233;51.982;4.594;2023-04-03T05:22:23;2.90;;;1.30;;
64799;SDS011;51233;51.982;4.594;2023-04-03T05:25:23;2.43;;;1.43;;
64799;SDS011;51233;51.982;4.594;2023-04-03T05:28:23;3.65;;;1.70;;
64799;SDS011;51233;51.982;4.594;2023-04-03T05:31:24;2.17;;;1.60;;
64799;SDS011;51233;51.982;4.594;2023-04-03T05:34:27;1.52;;;1.42;;
64799;SDS011;51233;51.982;4.594;2023-04-03T05:37:28;4.30;;;1.58;;
64799;SDS011;51233;51.982;4.594;2023-04-03T05:40:28;4.07;;;1.37;;
64799;SDS011;51233;51.982;4.594;2023-04-03T05:43:28;1.73;;;1.20;;
64799;SDS011;51233;51.982;4.594;2023-04-03T05:46:28;2.97;;;1.40;;
64799;SDS011;51233;51.982;4.594;2023-04-03T05:49:28;2.07;;;1.40;;
64799;SDS011;51233;51.982;4.594;2023-04-03T05:52:33;1.48;;;1.20;;
64799;SDS011;51233;51.982;4.594;2023-04-03T05:55:35;3.10;;;1.52;;
64799;SDS011;51233;51.982;4.594;2023-04-03T05:58:35;1.73;;;1.63;;
64799;SDS011;51233;51.982;4.594;2023-04-03T06:01:35;1.85;;;1.50;;
64799;SDS011;51233;51.982;4.594;2023-04-03T06:04:35;5.75;;;1.67;;
64799;SDS011;51233;51.982;4.594;2023-04-03T06:07:38;1.13;;;1.02;;
64799;SDS011;51233;51.982;4.594;2023-04-03T06:10:38;2.10;;;1.20;;
64799;SDS011;51233;51.982;4.594;2023-04-03T06:13:39;3.25;;;1.30;;
64799;SDS011;51233;51.982;4.594;2023-04-03T06:16:41;3.58;;;1.95;;
64799;SDS011;51233;51.982;4.594;2023-04-03T06:19:42;1.80;;;1.60;;
64799;SDS011;51233;51.982;4.594;2023-04-03T06:22:42;2.35;;;1.50;;
64799;SDS011;51233;51.982;4.594;2023-04-03T06:25:42;4.35;;;1.70;;
64799;SDS011;51233;51.982;4.594;2023-04-03T06:28:42;3.25;;;1.60;;
64799;SDS011;51233;51.982;4.594;2023-04-03T06:31:43;5.07;;;1.83;;
64799;SDS011;51233;51.982;4.594;2023-04-03T06:34:46;2.38;;;1.45;;
64799;SDS011;51233;51.982;4.594;2023-04-03T06:37:46;2.53;;;1.73;;
64799;SDS011;51233;51.982;4.594;2023-04-03T06:40:46;2.50;;;1.70;;
64799;SDS011;51233;51.982;4.594;2023-04-03T06:43:47;4.17;;;1.80;;
64799;SDS011;51233;51.982;4.594;2023-04-03T06:46:47;3.13;;;1.33;;
64799;SDS011;51233;51.982;4.594;2023-04-03T06:49:48;3.10;;;1.90;;
64799;SDS011;51233;51.982;4.594;2023-04-03T06:52:48;3.33;;;1.50;;
64799;SDS011;51233;51.982;4.594;2023-04-03T06:55:48;2.92;;;1.50;;
64799;SDS011;51233;51.982;4.594;2023-04-03T06:58:49;3.58;;;1.55;;
64799;SDS011;51233;51.982;4.594;2023-04-03T07:01:50;2.85;;;1.67;;
64799;SDS011;51233;51.982;4.594;2023-04-03T07:04:51;3.38;;;1.65;;
64799;SDS011;51233;51.982;4.594;2023-04-03T07:07:51;2.55;;;1.67;;
64799;SDS011;51233;51.982;4.594;2023-04-03T07:10:51;2.42;;;1.70;;
64799;SDS011;51233;51.982;4.594;2023-04-03T07:13:52;8.10;;;2.15;;
64799;SDS011;51233;51.982;4.594;2023-04-03T07:16:52;2.53;;;1.83;;
64799;SDS011;51233;51.982;4.594;2023-04-03T07:19:52;5.53;;;1.52;;
64799;SDS011;51233;51.982;4.594;2023-04-03T07:22:52;3.53;;;1.60;;
64799;SDS011;51233;51.982;4.594;2023-04-03T07:25:53;2.87;;;1.60;;
64799;SDS011;51233;51.982;4.594;2023-04-03T07:28:53;2.45;;;1.38;;
64799;SDS011;51233;51.982;4.594;2023-04-03T07:31:53;2.45;;;1.50;;
64799;SDS011;51233;51.982;4.594;2023-04-03T07:34:55;2.15;;;1.58;;
64799;SDS011;51233;51.982;4.594;2023-04-03T07:37:55;5.15;;;1.83;;
64799;SDS011;51233;51.982;4.594;2023-04-03T07:40:55;2.00;;;1.20;;
64799;SDS011;51233;51.982;4.594;2023-04-03T07:43:56;4.90;;;1.60;;
64799;SDS011;51233;51.982;4.594;2023-04-03T07:46:56;3.97;;;1.70;;
64799;SDS011;51233;51.982;4.594;2023-04-03T07:49:57;1.43;;;1.10;;
64799;SDS011;51233;51.982;4.594;2023-04-03T07:52:58;2.28;;;1.38;;
64799;SDS011;51233;51.982;4.594;2023-04-03T07:55:58;2.65;;;1.52;;
64799;SDS011;51233;51.982;4.594;2023-04-03T07:58:58;3.23;;;1.80;;
64799;SDS011;51233;51.982;4.594;2023-04-03T08:01:58;3.10;;;1.87;;
64799;SDS011;51233;51.982;4.594;2023-04-03T08:04:59;3.33;;;1.80;;
64799;SDS011;51233;51.982;4.594;2023-04-03T08:07:59;7.57;;;1.30;;
64799;SDS011;51233;51.982;4.594;2023-04-03T08:11:00;5.65;;;1.85;;
64799;SDS011;51233;51.982;4.594;2023-04-03T08:14:05;2.60;;;1.65;;
64799;SDS011;51233;51.982;4.594;2023-04-03T08:17:06;2.83;;;1.50;;
64799;SDS011;51233;51.982;4.594;2023-04-03T08:20:09;3.28;;;1.83;;
64799;SDS011;51233;51.982;4.594;2023-04-03T08:23:10;2.40;;;1.25;;
64799;SDS011;51233;51.982;4.594;2023-04-03T08:26:14;2.28;;;1.60;;
64799;SDS011;51233;51.982;4.594;2023-04-03T08:29:15;3.65;;;1.67;;
64799;SDS011;51233;51.982;4.594;2023-04-03T08:32:15;1.85;;;1.20;;
64799;SDS011;51233;51.982;4.594;2023-04-03T08:35:16;3.02;;;1.54;;
64799;SDS011;51233;51.982;4.594;2023-04-03T08:38:16;3.17;;;1.38;;
64799;SDS011;51233;51.982;4.594;2023-04-03T08:47:40;2.92;;;1.45;;
64799;SDS011;51233;51.982;4.594;2023-04-03T08:50:43;1.00;;;0.90;;
64799;SDS011;51233;51.982;4.594;2023-04-03T08:53:49;5.72;;;1.75;;
64799;SDS011;51233;51.982;4.594;2023-04-03T08:56:52;3.35;;;1.35;;
64799;SDS011;51233;51.982;4.594;2023-04-03T08:59:53;2.70;;;1.50;;
64799;SDS011;51233;51.982;4.594;2023-04-03T09:02:53;1.20;;;1.00;;
64799;SDS011;51233;51.982;4.594;2023-04-03T09:09:43;2.47;;;1.00;;
64799;SDS011;51233;51.982;4.594;2023-04-03T09:12:48;1.90;;;1.25;;
64799;SDS011;51233;51.982;4.594;2023-04-03T09:15:50;1.55;;;1.10;;
64799;SDS011;51233;51.982;4.594;2023-04-03T09:22:32;2.78;;;1.33;;
64799;SDS011;51233;51.982;4.594;2023-04-03T09:25:37;1.98;;;1.17;;
64799;SDS011;51233;51.982;4.594;2023-04-03T09:28:38;1.50;;;1.07;;
64799;SDS011;51233;51.982;4.594;2023-04-03T09:31:40;1.33;;;0.70;;
64799;SDS011;51233;51.982;4.594;2023-04-03T09:34:41;1.23;;;0.68;;
64799;SDS011;51233;51.982;4.594;2023-04-03T09:37:44;1.37;;;0.83;;
64799;SDS011;51233;51.982;4.594;2023-04-03T09:40:45;3.35;;;1.10;;
64799;SDS011;51233;51.982;4.594;2023-04-03T09:43:53;1.33;;;0.80;;
64799;SDS011;51233;51.982;4.594;2023-04-03T09:46:54;0.75;;;0.63;;
64799;SDS011;51233;51.982;4.594;2023-04-03T09:53:27;0.80;;;0.80;;
64799;SDS011;51233;51.982;4.594;2023-04-03T09:56:30;1.13;;;0.90;;
64799;SDS011;51233;51.982;4.594;2023-04-03T09:59:31;1.08;;;0.90;;
64799;SDS011;51233;51.982;4.594;2023-04-03T10:02:34;1.30;;;0.70;;
64799;SDS011;51233;51.982;4.594;2023-04-03T10:05:36;2.25;;;1.10;;
64799;SDS011;51233;51.982;4.594;2023-04-03T10:08:36;1.92;;;0.90;;
64799;SDS011;51233;51.982;4.594;2023-04-03T10:11:37;0.90;;;0.70;;
64799;SDS011;51233;51.982;4.594;2023-04-03T10:14:53;1.08;;;0.82;;
64799;SDS011;51233;51.982;4.594;2023-04-03T10:17:58;0.68;;;0.65;;
64799;SDS011;51233;51.982;4.594;2023-04-03T10:21:04;0.80;;;0.80;;
64799;SDS011;51233;51.982;4.594;2023-04-03T10:27:32;1.08;;;0.50;;
64799;SDS011;51233;51.982;4.594;2023-04-03T10:30:56;2.47;;;0.70;;
64799;SDS011;51233;51.982;4.594;2023-04-03T10:37:02;0.40;;;0.40;;
64799;SDS011;51233;51.982;4.594;2023-04-03T10:46:12;0.70;;;0.60;;
64799;SDS011;51233;51.982;4.594;2023-04-03T10:52:47;1.17;;;0.90;;
64799;SDS011;51233;51.982;4.594;2023-04-03T10:56:02;0.65;;;0.65;;
64799;SDS011;51233;51.982;4.594;2023-04-03T11:02:24;0.50;;;0.50;;
64799;SDS011;51233;51.982;4.594;2023-04-03T11:05:45;2.37;;;0.63;;
64799;SDS011;51233;51.982;4.594;2023-04-03T11:08:51;1.73;;;0.77;;
64799;SDS011;51233;51.982;4.594;2023-04-03T11:12:00;0.77;;;0.52;;
64799;SDS011;51233;51.982;4.594;2023-04-03T11:15:04;0.95;;;0.75;;
64799;SDS011;51233;51.982;4.594;2023-04-03T11:18:12;1.33;;;0.90;;
64799;SDS011;51233;51.982;4.594;2023-04-03T11:21:21;0.52;;;0.40;;
64799;SDS011;51233;51.982;4.594;2023-04-03T11:24:24;0.35;;;0.32;;
64799;SDS011;51233;51.982;4.594;2023-04-03T11:27:25;0.57;;;0.43;;
64799;SDS011;51233;51.982;4.594;2023-04-03T11:36:47;0.93;;;0.60;;
64799;SDS011;51233;51.982;4.594;2023-04-03T11:39:56;1.52;;;0.70;;
64799;SDS011;51233;51.982;4.594;2023-04-03T11:43:19;0.70;;;0.70;;
64799;SDS011;51233;51.982;4.594;2023-04-03T11:46:20;0.88;;;0.40;;
64799;SDS011;51233;51.982;4.594;2023-04-03T12:02:33;0.85;;;0.60;;
64799;SDS011;51233;51.982;4.594;2023-04-03T12:05:28;0.68;;;0.50;;
64799;SDS011;51233;51.982;4.594;2023-04-03T12:11:40;0.30;;;0.30;;
64799;SDS011;51233;51.982;4.594;2023-04-03T12:14:43;0.50;;;0.50;;
64799;SDS011;51233;51.982;4.594;2023-04-03T12:17:43;1.50;;;0.60;;
64799;SDS011;51233;51.982;4.594;2023-04-03T12:30:29;0.60;;;0.60;;
64799;SDS011;51233;51.982;4.594;2023-04-03T12:33:55;0.85;;;0.60;;
64799;SDS011;51233;51.982;4.594;2023-04-03T12:52:36;0.80;;;0.75;;
64799;SDS011;51233;51.982;4.594;2023-04-03T12:55:37;0.80;;;0.52;;
64799;SDS011;51233;51.982;4.594;2023-04-03T12:58:38;1.33;;;1.00;;
64799;SDS011;51233;51.982;4.594;2023-04-03T13:01:38;1.02;;;0.75;;
64799;SDS011;51233;51.982;4.594;2023-04-03T13:04:38;1.87;;;1.10;;
64799;SDS011;51233;51.982;4.594;2023-04-03T13:07:38;1.33;;;0.83;;
64799;SDS011;51233;51.982;4.594;2023-04-03T13:10:51;1.00;;;0.80;;
64799;SDS011;51233;51.982;4.594;2023-04-03T13:13:59;3.72;;;1.10;;
64799;SDS011;51233;51.982;4.594;2023-04-03T13:23:30;1.05;;;0.90;;
64799;SDS011;51233;51.982;4.594;2023-04-03T13:26:31;1.73;;;1.23;;
64799;SDS011;51233;51.982;4.594;2023-04-03T13:29:34;1.67;;;0.80;;
64799;SDS011;51233;51.982;4.594;2023-04-03T13:32:39;1.58;;;1.20;;
64799;SDS011;51233;51.982;4.594;2023-04-03T13:35:39;1.10;;;1.00;;
64799;SDS011;51233;51.982;4.594;2023-04-03T13:38:40;1.23;;;1.10;;
64799;SDS011;51233;51.982;4.594;2023-04-03T13:41:44;1.43;;;1.00;;
64799;SDS011;51233;51.982;4.594;2023-04-03T13:44:45;3.30;;;0.90;;
64799;SDS011;51233;51.982;4.594;2023-04-03T13:47:48;2.65;;;1.30;;
64799;SDS011;51233;51.982;4.594;2023-04-03T13:53:58;1.40;;;0.90;;
64799;SDS011;51233;51.982;4.594;2023-04-03T13:57:00;1.40;;;1.00;;
64799;SDS011;51233;51.982;4.594;2023-04-03T14:00:18;0.93;;;0.70;;
64799;SDS011;51233;51.982;4.594;2023-04-03T14:06:18;2.33;;;0.97;;
64799;SDS011;51233;51.982;4.594;2023-04-03T14:09:19;0.67;;;0.67;;
64799;SDS011;51233;51.982;4.594;2023-04-03T14:12:30;2.10;;;1.10;;
64799;SDS011;51233;51.982;4.594;2023-04-03T14:15:36;0.70;;;0.63;;
64799;SDS011;51233;51.982;4.594;2023-04-03T14:18:36;1.55;;;1.10;;
64799;SDS011;51233;51.982;4.594;2023-04-03T14:21:37;1.50;;;0.93;;
64799;SDS011;51233;51.982;4.594;2023-04-03T14:24:37;2.28;;;1.00;;
64799;SDS011;51233;51.982;4.594;2023-04-03T14:27:39;4.93;;;1.30;;
64799;SDS011;51233;51.982;4.594;2023-04-03T14:33:43;1.38;;;0.95;;
64799;SDS011;51233;51.982;4.594;2023-04-03T14:36:43;1.77;;;0.80;;
64799;SDS011;51233;51.982;4.594;2023-04-03T14:39:44;1.60;;;0.83;;
64799;SDS011;51233;51.982;4.594;2023-04-03T14:42:45;3.17;;;1.00;;
64799;SDS011;51233;51.982;4.594;2023-04-03T14:45:48;1.75;;;1.00;;
64799;SDS011;51233;51.982;4.594;2023-04-03T14:48:48;0.98;;;0.88;;
64799;SDS011;51233;51.982;4.594;2023-04-03T14:51:48;1.02;;;0.85;;
64799;SDS011;51233;51.982;4.594;2023-04-03T14:54:48;1.98;;;1.00;;
64799;SDS011;51233;51.982;4.594;2023-04-03T14:57:49;3.47;;;1.00;;
64799;SDS011;51233;51.982;4.594;2023-04-03T15:00:49;1.07;;;0.90;;
64799;SDS011;51233;51.982;4.594;2023-04-03T15:03:49;1.30;;;1.20;;
64799;SDS011;51233;51.982;4.594;2023-04-03T15:06:50;3.30;;;0.90;;
64799;SDS011;51233;51.982;4.594;2023-04-03T15:09:51;1.13;;;0.88;;
64799;SDS011;51233;51.982;4.594;2023-04-03T15:12:54;2.00;;;1.03;;
64799;SDS011;51233;51.982;4.594;2023-04-03T15:15:55;2.05;;;1.00;;
64799;SDS011;51233;51.982;4.594;2023-04-03T15:18:55;4.30;;;1.10;;
64799;SDS011;51233;51.982;4.594;2023-04-03T15:21:56;0.80;;;0.80;;
64799;SDS011;51233;51.982;4.594;2023-04-03T15:24:56;1.50;;;1.00;;
64799;SDS011;51233;51.982;4.594;2023-04-03T15:27:56;2.25;;;1.35;;
64799;SDS011;51233;51.982;4.594;2023-04-03T15:30:56;1.43;;;1.10;;
64799;SDS011;51233;51.982;4.594;2023-04-03T15:33:56;3.60;;;0.90;;
64799;SDS011;51233;51.982;4.594;2023-04-03T15:36:57;1.93;;;1.10;;
64799;SDS011;51233;51.982;4.594;2023-04-03T15:39:57;2.17;;;1.20;;
64799;SDS011;51233;51.982;4.594;2023-04-03T15:42:57;2.20;;;1.20;;
64799;SDS011;51233;51.982;4.594;2023-04-03T15:46:00;1.80;;;1.17;;
64799;SDS011;51233;51.982;4.594;2023-04-03T15:49:01;1.33;;;1.23;;
64799;SDS011;51233;51.982;4.594;2023-04-03T15:52:01;1.53;;;1.23;;
64799;SDS011;51233;51.982;4.594;2023-04-03T15:55:01;3.30;;;1.27;;
64799;SDS011;51233;51.982;4.594;2023-04-03T15:58:02;2.67;;;1.40;;
64799;SDS011;51233;51.982;4.594;2023-04-03T16:01:02;2.33;;;1.20;;
64799;SDS011;51233;51.982;4.594;2023-04-03T16:04:06;2.13;;;1.10;;
64799;SDS011;51233;51.982;4.594;2023-04-03T16:07:07;1.77;;;1.10;;
64799;SDS011;51233;51.982;4.594;2023-04-03T16:10:08;1.93;;;1.10;;
64799;SDS011;51233;51.982;4.594;2023-04-03T16:13:08;1.20;;;1.10;;
64799;SDS011;51233;51.982;4.594;2023-04-03T16:16:09;6.27;;;1.20;;
64799;SDS011;51233;51.982;4.594;2023-04-03T16:19:09;1.43;;;1.20;;
64799;SDS011;51233;51.982;4.594;2023-04-03T16:22:09;1.87;;;1.17;;
64799;SDS011;51233;51.982;4.594;2023-04-03T16:25:10;2.93;;;1.23;;
64799;SDS011;51233;51.982;4.594;2023-04-03T16:28:10;1.53;;;1.03;;
64799;SDS011;51233;51.982;4.594;2023-04-03T16:31:10;1.70;;;1.17;;
64799;SDS011;51233;51.982;4.594;2023-04-03T16:34:11;1.77;;;1.10;;
64799;SDS011;51233;51.982;4.594;2023-04-03T16:37:11;3.20;;;1.17;;
64799;SDS011;51233;51.982;4.594;2023-04-03T16:40:15;1.35;;;1.25;;
64799;SDS011;51233;51.982;4.594;2023-04-03T16:43:15;1.57;;;1.20;;
64799;SDS011;51233;51.982;4.594;2023-04-03T16:46:15;2.20;;;1.30;;
64799;SDS011;51233;51.982;4.594;2023-04-03T16:49:16;2.97;;;1.10;;
64799;SDS011;51233;51.982;4.594;2023-04-03T16:52:16;1.67;;;1.37;;
64799;SDS011;51233;51.982;4.594;2023-04-03T16:55:16;2.60;;;0.97;;
64799;SDS011;51233;51.982;4.594;2023-04-03T16:58:17;1.47;;;1.27;;
64799;SDS011;51233;51.982;4.594;2023-04-03T17:01:18;2.47;;;1.40;;
64799;SDS011;51233;51.982;4.594;2023-04-03T17:04:18;1.52;;;1.30;;
64799;SDS011;51233;51.982;4.594;2023-04-03T17:07:19;2.93;;;1.47;;
64799;SDS011;51233;51.982;4.594;2023-04-03T17:10:19;2.40;;;1.50;;
64799;SDS011;51233;51.982;4.594;2023-04-03T17:13:20;3.17;;;1.33;;
64799;SDS011;51233;51.982;4.594;2023-04-03T17:16:20;2.33;;;1.40;;
64799;SDS011;51233;51.982;4.594;2023-04-03T17:19:20;2.33;;;1.43;;
64799;SDS011;51233;51.982;4.594;2023-04-03T17:22:21;2.93;;;1.57;;
64799;SDS011;51233;51.982;4.594;2023-04-03T17:25:21;3.17;;;1.50;;
64799;SDS011;51233;51.982;4.594;2023-04-03T17:28:21;2.45;;;1.27;;
64799;SDS011;51233;51.982;4.594;2023-04-03T17:31:27;2.72;;;1.38;;
64799;SDS011;51233;51.982;4.594;2023-04-03T17:34:27;2.00;;;1.43;;
64799;SDS011;51233;51.982;4.594;2023-04-03T17:37:27;4.55;;;1.50;;
64799;SDS011;51233;51.982;4.594;2023-04-03T17:40:27;2.10;;;1.40;;
64799;SDS011;51233;51.982;4.594;2023-04-03T17:43:28;1.63;;;1.20;;
64799;SDS011;51233;51.982;4.594;2023-04-03T17:46:28;3.67;;;1.47;;
64799;SDS011;51233;51.982;4.594;2023-04-03T17:49:28;2.13;;;1.37;;
64799;SDS011;51233;51.982;4.594;2023-04-03T17:52:29;5.07;;;1.43;;
64799;SDS011;51233;51.982;4.594;2023-04-03T17:55:30;3.30;;;1.30;;
64799;SDS011;51233;51.982;4.594;2023-04-03T17:58:30;2.42;;;1.40;;
64799;SDS011;51233;51.982;4.594;2023-04-03T18:01:32;2.03;;;1.40;;
64799;SDS011;51233;51.982;4.594;2023-04-03T18:04:32;2.50;;;1.67;;
64799;SDS011;51233;51.982;4.594;2023-04-03T18:07:32;3.15;;;1.35;;
64799;SDS011;51233;51.982;4.594;2023-04-03T18:10:34;2.47;;;1.52;;
64799;SDS011;51233;51.982;4.594;2023-04-03T18:13:35;3.08;;;1.65;;
64799;SDS011;51233;51.982;4.594;2023-04-03T18:16:36;2.85;;;1.40;;
64799;SDS011;51233;51.982;4.594;2023-04-03T18:19:37;2.50;;;1.47;;
64799;SDS011;51233;51.982;4.594;2023-04-03T18:22:37;1.70;;;1.43;;
64799;SDS011;51233;51.982;4.594;2023-04-03T18:25:37;2.77;;;1.70;;
64799;SDS011;51233;51.982;4.594;2023-04-03T18:28:37;1.77;;;1.40;;
64799;SDS011;51233;51.982;4.594;2023-04-03T18:31:39;4.63;;;1.67;;
64799;SDS011;51233;51.982;4.594;2023-04-03T18:34:40;3.03;;;1.77;;
64799;SDS011;51233;51.982;4.594;2023-04-03T18:37:40;2.60;;;1.77;;
64799;SDS011;51233;51.982;4.594;2023-04-03T18:40:41;3.07;;;1.93;;
64799;SDS011;51233;51.982;4.594;2023-04-03T18:43:43;2.78;;;1.60;;
64799;SDS011;51233;51.982;4.594;2023-04-03T18:46:43;1.65;;;1.23;;
64799;SDS011;51233;51.982;4.594;2023-04-03T18:49:44;1.93;;;1.20;;
64799;SDS011;51233;51.982;4.594;2023-04-03T18:52:44;1.43;;;1.30;;
64799;SDS011;51233;51.982;4.594;2023-04-03T18:55:49;3.33;;;1.60;;
64799;SDS011;51233;51.982;4.594;2023-04-03T18:58:49;1.70;;;1.10;;
64799;SDS011;51233;51.982;4.594;2023-04-03T19:01:50;6.37;;;3.30;;
64799;SDS011;51233;51.982;4.594;2023-04-03T19:04:50;1.60;;;1.30;;
64799;SDS011;51233;51.982;4.594;2023-04-03T19:07:52;2.00;;;1.13;;
64799;SDS011;51233;51.982;4.594;2023-04-03T19:10:52;1.15;;;1.02;;
64799;SDS011;51233;51.982;4.594;2023-04-03T19:13:52;1.60;;;1.50;;
64799;SDS011;51233;51.982;4.594;2023-04-03T19:16:53;2.80;;;1.20;;
64799;SDS011;51233;51.982;4.594;2023-04-03T19:19:53;2.67;;;1.07;;
64799;SDS011;51233;51.982;4.594;2023-04-03T19:22:53;1.35;;;0.95;;
64799;SDS011;51233;51.982;4.594;2023-04-03T19:25:57;5.20;;;1.40;;
64799;SDS011;51233;51.982;4.594;2023-04-03T19:28:58;2.15;;;1.20;;
64799;SDS011;51233;51.982;4.594;2023-04-03T19:31:58;1.10;;;0.98;;
64799;SDS011;51233;51.982;4.594;2023-04-03T19:34:59;2.00;;;1.50;;
64799;SDS011;51233;51.982;4.594;2023-04-03T19:37:59;2.27;;;1.23;;
64799;SDS011;51233;51.982;4.594;2023-04-03T19:41:00;5.18;;;1.33;;
64799;SDS011;51233;51.982;4.594;2023-04-03T19:44:00;2.22;;;1.30;;
64799;SDS011;51233;51.982;4.594;2023-04-03T19:47:01;1.53;;;1.20;;
64799;SDS011;51233;51.982;4.594;2023-04-03T19:50:01;2.50;;;1.37;;
64799;SDS011;51233;51.982;4.594;2023-04-03T19:53:02;4.13;;;1.70;;
64799;SDS011;51233;51.982;4.594;2023-04-03T19:56:02;3.63;;;1.30;;
64799;SDS011;51233;51.982;4.594;2023-04-03T19:59:02;4.97;;;1.50;;
64799;SDS011;51233;51.982;4.594;2023-04-03T20:02:02;4.10;;;1.74;;
64799;SDS011;51233;51.982;4.594;2023-04-03T20:05:02;1.80;;;1.40;;